sensor_id;sensor_type;location;lat;lon;timestamp;P1;durP1;ratioP1;P2;durP2;ratioP2
68593;SDS011;55563;52.416;13.548;2023-03-01T00:00:34;11.18;;;5.93;;
68593;SDS011;55563;52.416;13.548;2023-03-01T00:02:35;11.43;;;6.10;;
68593;SDS011;55563;52.416;13.548;2023-03-01T00:04:36;9.93;;;5.57;;
68593;SDS011;55563;52.416;13.548;2023-03-01T00:06:37;11.40;;;5.50;;
68593;SDS011;55563;52.416;13.548;2023-03-01T00:08:38;10.80;;;5.38;;
68593;SDS011;55563;52.416;13.548;2023-03-01T00:10:39;9.63;;;5.30;;
68593;SDS011;55563;52.416;13.548;2023-03-01T00:12:39;10.52;;;5.25;;
68593;SDS011;55563;52.416;13.548;2023-03-01T00:14:40;9.50;;;5.22;;
68593;SDS011;55563;52.416;13.548;2023-03-01T00:16:41;10.23;;;5.63;;
68593;SDS011;55563;52.416;13.548;2023-03-01T00:18:43;9.38;;;5.15;;
68593;SDS011;55563;52.416;13.548;2023-03-01T00:20:52;11.30;;;5.90;;
68593;SDS011;55563;52.416;13.548;2023-03-01T00:22:53;11.45;;;5.60;;
68593;SDS011;55563;52.416;13.548;2023-03-01T00:24:54;10.10;;;5.22;;
68593;SDS011;55563;52.416;13.548;2023-03-01T00:26:54;10.77;;;5.55;;
68593;SDS011;55563;52.416;13.548;2023-03-01T00:31:06;8.85;;;5.10;;
68593;SDS011;55563;52.416;13.548;2023-03-01T00:33:08;8.70;;;5.22;;
68593;SDS011;55563;52.416;13.548;2023-03-01T00:35:09;9.18;;;5.07;;
68593;SDS011;55563;52.416;13.548;2023-03-01T00:37:09;8.43;;;4.80;;
68593;SDS011;55563;52.416;13.548;2023-03-01T00:39:12;8.77;;;4.75;;
68593;SDS011;55563;52.416;13.548;2023-03-01T00:41:15;9.13;;;4.85;;
68593;SDS011;55563;52.416;13.548;2023-03-01T00:43:17;8.38;;;4.38;;
68593;SDS011;55563;52.416;13.548;2023-03-01T00:45:19;8.48;;;4.47;;
68593;SDS011;55563;52.416;13.548;2023-03-01T00:47:19;8.35;;;4.78;;
68593;SDS011;55563;52.416;13.548;2023-03-01T00:49:20;8.10;;;4.43;;
68593;SDS011;55563;52.416;13.548;2023-03-01T00:51:23;8.32;;;4.75;;
68593;SDS011;55563;52.416;13.548;2023-03-01T00:53:25;9.73;;;4.85;;
68593;SDS011;55563;52.416;13.548;2023-03-01T00:55:26;7.63;;;4.10;;
68593;SDS011;55563;52.416;13.548;2023-03-01T00:57:27;8.25;;;4.28;;
68593;SDS011;55563;52.416;13.548;2023-03-01T00:59:27;8.15;;;4.50;;
68593;SDS011;55563;52.416;13.548;2023-03-01T01:01:29;8.60;;;4.43;;
68593;SDS011;55563;52.416;13.548;2023-03-01T01:03:31;8.55;;;4.40;;
68593;SDS011;55563;52.416;13.548;2023-03-01T01:05:34;8.77;;;4.45;;
68593;SDS011;55563;52.416;13.548;2023-03-01T01:07:35;9.90;;;4.88;;
68593;SDS011;55563;52.416;13.548;2023-03-01T01:09:36;8.63;;;4.63;;
68593;SDS011;55563;52.416;13.548;2023-03-01T01:15:40;8.15;;;4.18;;
68593;SDS011;55563;52.416;13.548;2023-03-01T01:17:41;10.35;;;5.05;;
68593;SDS011;55563;52.416;13.548;2023-03-01T01:19:42;8.82;;;4.57;;
68593;SDS011;55563;52.416;13.548;2023-03-01T01:21:43;9.40;;;4.68;;
68593;SDS011;55563;52.416;13.548;2023-03-01T01:23:45;9.52;;;5.22;;
68593;SDS011;55563;52.416;13.548;2023-03-01T01:25:47;10.10;;;5.50;;
68593;SDS011;55563;52.416;13.548;2023-03-01T01:27:47;10.95;;;5.72;;
68593;SDS011;55563;52.416;13.548;2023-03-01T01:29:48;10.15;;;5.57;;
68593;SDS011;55563;52.416;13.548;2023-03-01T01:31:49;9.15;;;5.68;;
68593;SDS011;55563;52.416;13.548;2023-03-01T01:33:50;11.32;;;5.82;;
68593;SDS011;55563;52.416;13.548;2023-03-01T01:35:51;12.57;;;7.00;;
68593;SDS011;55563;52.416;13.548;2023-03-01T01:37:52;10.50;;;5.65;;
68593;SDS011;55563;52.416;13.548;2023-03-01T01:39:53;12.25;;;6.03;;
68593;SDS011;55563;52.416;13.548;2023-03-01T01:41:53;10.07;;;5.78;;
68593;SDS011;55563;52.416;13.548;2023-03-01T01:44:26;11.15;;;6.18;;
68593;SDS011;55563;52.416;13.548;2023-03-01T01:46:30;11.07;;;6.35;;
68593;SDS011;55563;52.416;13.548;2023-03-01T01:48:34;11.45;;;6.75;;
68593;SDS011;55563;52.416;13.548;2023-03-01T01:50:41;11.00;;;6.40;;
68593;SDS011;55563;52.416;13.548;2023-03-01T01:52:45;12.80;;;6.40;;
68593;SDS011;55563;52.416;13.548;2023-03-01T01:54:57;10.20;;;6.00;;
68593;SDS011;55563;52.416;13.548;2023-03-01T01:57:03;9.15;;;5.13;;
68593;SDS011;55563;52.416;13.548;2023-03-01T01:59:07;9.25;;;5.28;;
68593;SDS011;55563;52.416;13.548;2023-03-01T02:01:09;10.50;;;5.53;;
68593;SDS011;55563;52.416;13.548;2023-03-01T02:03:12;9.32;;;5.50;;
68593;SDS011;55563;52.416;13.548;2023-03-01T02:05:21;10.52;;;5.82;;
68593;SDS011;55563;52.416;13.548;2023-03-01T02:07:28;9.38;;;6.38;;
68593;SDS011;55563;52.416;13.548;2023-03-01T02:09:30;10.25;;;6.10;;
68593;SDS011;55563;52.416;13.548;2023-03-01T02:11:32;9.10;;;5.05;;
68593;SDS011;55563;52.416;13.548;2023-03-01T02:15:35;9.05;;;5.80;;
68593;SDS011;55563;52.416;13.548;2023-03-01T02:17:37;9.95;;;5.93;;
68593;SDS011;55563;52.416;13.548;2023-03-01T02:19:42;10.40;;;5.78;;
68593;SDS011;55563;52.416;13.548;2023-03-01T02:22:07;11.80;;;5.47;;
68593;SDS011;55563;52.416;13.548;2023-03-01T02:26:56;11.45;;;5.50;;
68593;SDS011;55563;52.416;13.548;2023-03-01T02:29:01;9.80;;;5.15;;
68593;SDS011;55563;52.416;13.548;2023-03-01T02:31:02;13.20;;;5.85;;
68593;SDS011;55563;52.416;13.548;2023-03-01T02:33:26;10.30;;;5.65;;
68593;SDS011;55563;52.416;13.548;2023-03-01T02:35:27;10.75;;;5.53;;
68593;SDS011;55563;52.416;13.548;2023-03-01T02:37:36;9.55;;;5.38;;
68593;SDS011;55563;52.416;13.548;2023-03-01T02:39:38;12.40;;;6.03;;
68593;SDS011;55563;52.416;13.548;2023-03-01T02:41:44;9.63;;;5.55;;
68593;SDS011;55563;52.416;13.548;2023-03-01T02:43:48;11.48;;;5.85;;
68593;SDS011;55563;52.416;13.548;2023-03-01T02:45:49;9.93;;;5.65;;
68593;SDS011;55563;52.416;13.548;2023-03-01T02:47:54;11.02;;;5.82;;
68593;SDS011;55563;52.416;13.548;2023-03-01T02:49:56;9.70;;;5.07;;
68593;SDS011;55563;52.416;13.548;2023-03-01T02:52:13;12.45;;;5.68;;
68593;SDS011;55563;52.416;13.548;2023-03-01T02:56:49;10.10;;;5.60;;
68593;SDS011;55563;52.416;13.548;2023-03-01T02:58:53;10.10;;;5.50;;
68593;SDS011;55563;52.416;13.548;2023-03-01T03:00:54;11.35;;;5.60;;
68593;SDS011;55563;52.416;13.548;2023-03-01T03:04:58;9.30;;;5.00;;
68593;SDS011;55563;52.416;13.548;2023-03-01T03:06:59;11.95;;;4.97;;
68593;SDS011;55563;52.416;13.548;2023-03-01T03:09:00;9.57;;;5.18;;
68593;SDS011;55563;52.416;13.548;2023-03-01T03:11:02;9.73;;;4.95;;
68593;SDS011;55563;52.416;13.548;2023-03-01T03:13:05;10.82;;;5.22;;
68593;SDS011;55563;52.416;13.548;2023-03-01T03:15:09;10.48;;;5.38;;
68593;SDS011;55563;52.416;13.548;2023-03-01T03:17:13;10.60;;;5.18;;
68593;SDS011;55563;52.416;13.548;2023-03-01T03:19:14;11.75;;;5.22;;
68593;SDS011;55563;52.416;13.548;2023-03-01T03:21:16;9.88;;;5.32;;
68593;SDS011;55563;52.416;13.548;2023-03-01T03:23:18;9.55;;;5.30;;
68593;SDS011;55563;52.416;13.548;2023-03-01T03:25:21;10.50;;;5.30;;
68593;SDS011;55563;52.416;13.548;2023-03-01T03:27:24;10.63;;;5.72;;
68593;SDS011;55563;52.416;13.548;2023-03-01T03:29:25;9.63;;;5.28;;
68593;SDS011;55563;52.416;13.548;2023-03-01T03:31:26;8.77;;;5.20;;
68593;SDS011;55563;52.416;13.548;2023-03-01T03:33:27;10.80;;;5.07;;
68593;SDS011;55563;52.416;13.548;2023-03-01T03:35:29;10.75;;;5.85;;
68593;SDS011;55563;52.416;13.548;2023-03-01T03:37:31;9.20;;;5.00;;
68593;SDS011;55563;52.416;13.548;2023-03-01T03:39:52;9.27;;;5.07;;
68593;SDS011;55563;52.416;13.548;2023-03-01T03:41:54;9.05;;;5.25;;
68593;SDS011;55563;52.416;13.548;2023-03-01T03:43:55;10.90;;;5.30;;
68593;SDS011;55563;52.416;13.548;2023-03-01T03:45:56;10.50;;;5.72;;
68593;SDS011;55563;52.416;13.548;2023-03-01T03:51:59;10.07;;;5.13;;
68593;SDS011;55563;52.416;13.548;2023-03-01T03:54:00;9.18;;;5.10;;
68593;SDS011;55563;52.416;13.548;2023-03-01T03:56:00;9.65;;;4.97;;
68593;SDS011;55563;52.416;13.548;2023-03-01T03:58:02;10.90;;;5.65;;
68593;SDS011;55563;52.416;13.548;2023-03-01T04:00:08;10.98;;;5.00;;
68593;SDS011;55563;52.416;13.548;2023-03-01T04:02:24;9.57;;;5.90;;
68593;SDS011;55563;52.416;13.548;2023-03-01T04:04:25;10.27;;;5.47;;
68593;SDS011;55563;52.416;13.548;2023-03-01T04:06:26;10.55;;;5.18;;
68593;SDS011;55563;52.416;13.548;2023-03-01T04:08:27;10.18;;;5.38;;
68593;SDS011;55563;52.416;13.548;2023-03-01T04:10:29;10.38;;;6.22;;
68593;SDS011;55563;52.416;13.548;2023-03-01T04:12:31;9.75;;;5.68;;
68593;SDS011;55563;52.416;13.548;2023-03-01T04:14:34;10.68;;;6.07;;
68593;SDS011;55563;52.416;13.548;2023-03-01T04:16:35;9.85;;;6.10;;
68593;SDS011;55563;52.416;13.548;2023-03-01T04:18:35;9.60;;;5.55;;
68593;SDS011;55563;52.416;13.548;2023-03-01T04:20:36;10.52;;;5.55;;
68593;SDS011;55563;52.416;13.548;2023-03-01T04:22:37;10.80;;;6.18;;
68593;SDS011;55563;52.416;13.548;2023-03-01T04:24:38;10.88;;;5.28;;
68593;SDS011;55563;52.416;13.548;2023-03-01T04:26:39;11.60;;;6.10;;
68593;SDS011;55563;52.416;13.548;2023-03-01T04:28:40;10.80;;;5.38;;
68593;SDS011;55563;52.416;13.548;2023-03-01T04:30:45;10.40;;;5.32;;
68593;SDS011;55563;52.416;13.548;2023-03-01T04:32:48;10.88;;;6.75;;
68593;SDS011;55563;52.416;13.548;2023-03-01T04:34:50;10.02;;;6.18;;
68593;SDS011;55563;52.416;13.548;2023-03-01T04:36:51;9.50;;;5.20;;
68593;SDS011;55563;52.416;13.548;2023-03-01T04:38:52;9.52;;;5.53;;
68593;SDS011;55563;52.416;13.548;2023-03-01T04:40:53;10.32;;;6.15;;
68593;SDS011;55563;52.416;13.548;2023-03-01T04:42:53;10.38;;;6.22;;
68593;SDS011;55563;52.416;13.548;2023-03-01T04:44:54;10.65;;;5.68;;
68593;SDS011;55563;52.416;13.548;2023-03-01T04:46:55;9.32;;;6.45;;
68593;SDS011;55563;52.416;13.548;2023-03-01T04:48:55;12.68;;;6.63;;
68593;SDS011;55563;52.416;13.548;2023-03-01T04:50:56;10.98;;;6.88;;
68593;SDS011;55563;52.416;13.548;2023-03-01T04:52:58;12.50;;;7.10;;
68593;SDS011;55563;52.416;13.548;2023-03-01T04:54:58;11.18;;;6.50;;
68593;SDS011;55563;52.416;13.548;2023-03-01T04:56:59;11.73;;;6.07;;
68593;SDS011;55563;52.416;13.548;2023-03-01T04:59:01;10.00;;;5.80;;
68593;SDS011;55563;52.416;13.548;2023-03-01T05:01:08;11.40;;;6.43;;
68593;SDS011;55563;52.416;13.548;2023-03-01T05:03:16;13.20;;;7.00;;
68593;SDS011;55563;52.416;13.548;2023-03-01T05:05:20;12.00;;;6.03;;
68593;SDS011;55563;52.416;13.548;2023-03-01T05:07:25;11.38;;;7.10;;
68593;SDS011;55563;52.416;13.548;2023-03-01T05:09:26;11.52;;;6.03;;
68593;SDS011;55563;52.416;13.548;2023-03-01T05:11:27;11.77;;;6.68;;
68593;SDS011;55563;52.416;13.548;2023-03-01T05:13:32;11.90;;;5.82;;
68593;SDS011;55563;52.416;13.548;2023-03-01T05:15:32;12.55;;;7.38;;
68593;SDS011;55563;52.416;13.548;2023-03-01T05:17:33;12.50;;;7.35;;
68593;SDS011;55563;52.416;13.548;2023-03-01T05:19:34;12.90;;;6.00;;
68593;SDS011;55563;52.416;13.548;2023-03-01T05:21:35;11.93;;;7.00;;
68593;SDS011;55563;52.416;13.548;2023-03-01T05:23:55;11.73;;;6.15;;
68593;SDS011;55563;52.416;13.548;2023-03-01T05:25:58;14.65;;;7.68;;
68593;SDS011;55563;52.416;13.548;2023-03-01T05:28:00;12.15;;;5.97;;
68593;SDS011;55563;52.416;13.548;2023-03-01T05:30:04;12.65;;;6.40;;
68593;SDS011;55563;52.416;13.548;2023-03-01T05:32:13;12.93;;;6.57;;
68593;SDS011;55563;52.416;13.548;2023-03-01T05:34:15;12.55;;;7.50;;
68593;SDS011;55563;52.416;13.548;2023-03-01T05:36:16;12.77;;;6.68;;
68593;SDS011;55563;52.416;13.548;2023-03-01T05:38:19;13.18;;;7.13;;
68593;SDS011;55563;52.416;13.548;2023-03-01T05:40:21;14.02;;;7.13;;
68593;SDS011;55563;52.416;13.548;2023-03-01T05:42:24;14.77;;;8.48;;
68593;SDS011;55563;52.416;13.548;2023-03-01T05:44:25;14.07;;;8.50;;
68593;SDS011;55563;52.416;13.548;2023-03-01T05:46:26;12.90;;;7.00;;
68593;SDS011;55563;52.416;13.548;2023-03-01T05:48:27;13.65;;;6.97;;
68593;SDS011;55563;52.416;13.548;2023-03-01T05:50:29;11.27;;;6.40;;
68593;SDS011;55563;52.416;13.548;2023-03-01T05:52:30;15.65;;;8.52;;
68593;SDS011;55563;52.416;13.548;2023-03-01T05:54:31;13.65;;;6.50;;
68593;SDS011;55563;52.416;13.548;2023-03-01T05:56:35;13.43;;;6.30;;
68593;SDS011;55563;52.416;13.548;2023-03-01T05:58:36;12.43;;;7.63;;
68593;SDS011;55563;52.416;13.548;2023-03-01T06:02:39;12.05;;;6.38;;
68593;SDS011;55563;52.416;13.548;2023-03-01T06:04:41;18.23;;;8.55;;
68593;SDS011;55563;52.416;13.548;2023-03-01T06:06:41;15.18;;;8.82;;
68593;SDS011;55563;52.416;13.548;2023-03-01T06:08:42;14.88;;;6.78;;
68593;SDS011;55563;52.416;13.548;2023-03-01T06:10:43;14.30;;;8.32;;
68593;SDS011;55563;52.416;13.548;2023-03-01T06:12:43;14.50;;;6.95;;
68593;SDS011;55563;52.416;13.548;2023-03-01T06:14:45;13.40;;;8.15;;
68593;SDS011;55563;52.416;13.548;2023-03-01T06:16:47;14.25;;;7.55;;
68593;SDS011;55563;52.416;13.548;2023-03-01T06:18:48;14.18;;;7.85;;
68593;SDS011;55563;52.416;13.548;2023-03-01T06:20:53;13.60;;;8.07;;
68593;SDS011;55563;52.416;13.548;2023-03-01T06:22:55;12.30;;;6.95;;
68593;SDS011;55563;52.416;13.548;2023-03-01T06:24:56;14.13;;;7.68;;
68593;SDS011;55563;52.416;13.548;2023-03-01T06:26:57;13.10;;;8.27;;
68593;SDS011;55563;52.416;13.548;2023-03-01T06:28:58;15.30;;;7.70;;
68593;SDS011;55563;52.416;13.548;2023-03-01T06:30:59;13.90;;;7.35;;
68593;SDS011;55563;52.416;13.548;2023-03-01T06:32:59;14.02;;;7.15;;
68593;SDS011;55563;52.416;13.548;2023-03-01T06:35:01;14.80;;;8.50;;
68593;SDS011;55563;52.416;13.548;2023-03-01T06:37:02;14.68;;;8.63;;
68593;SDS011;55563;52.416;13.548;2023-03-01T06:39:05;14.02;;;7.32;;
68593;SDS011;55563;52.416;13.548;2023-03-01T06:41:06;13.35;;;6.85;;
68593;SDS011;55563;52.416;13.548;2023-03-01T06:43:08;15.35;;;8.57;;
68593;SDS011;55563;52.416;13.548;2023-03-01T06:45:10;15.00;;;9.02;;
68593;SDS011;55563;52.416;13.548;2023-03-01T06:47:11;15.85;;;7.93;;
68593;SDS011;55563;52.416;13.548;2023-03-01T06:49:12;15.50;;;8.27;;
68593;SDS011;55563;52.416;13.548;2023-03-01T06:51:13;13.52;;;8.35;;
68593;SDS011;55563;52.416;13.548;2023-03-01T06:53:14;15.40;;;8.93;;
68593;SDS011;55563;52.416;13.548;2023-03-01T06:55:15;14.20;;;8.50;;
68593;SDS011;55563;52.416;13.548;2023-03-01T06:57:15;15.15;;;8.85;;
68593;SDS011;55563;52.416;13.548;2023-03-01T06:59:17;17.10;;;8.77;;
68593;SDS011;55563;52.416;13.548;2023-03-01T07:01:18;16.83;;;7.93;;
68593;SDS011;55563;52.416;13.548;2023-03-01T07:03:18;15.68;;;9.00;;
68593;SDS011;55563;52.416;13.548;2023-03-01T07:05:19;15.23;;;9.00;;
68593;SDS011;55563;52.416;13.548;2023-03-01T07:07:21;17.13;;;8.95;;
68593;SDS011;55563;52.416;13.548;2023-03-01T07:09:22;15.10;;;7.93;;
68593;SDS011;55563;52.416;13.548;2023-03-01T07:11:24;15.20;;;8.68;;
68593;SDS011;55563;52.416;13.548;2023-03-01T07:13:25;14.38;;;9.15;;
68593;SDS011;55563;52.416;13.548;2023-03-01T07:15:26;14.57;;;8.05;;
68593;SDS011;55563;52.416;13.548;2023-03-01T07:17:27;15.75;;;8.02;;
68593;SDS011;55563;52.416;13.548;2023-03-01T07:19:28;14.23;;;8.05;;
68593;SDS011;55563;52.416;13.548;2023-03-01T07:21:28;12.55;;;8.23;;
68593;SDS011;55563;52.416;13.548;2023-03-01T07:23:29;14.23;;;7.95;;
68593;SDS011;55563;52.416;13.548;2023-03-01T07:25:30;14.85;;;7.85;;
68593;SDS011;55563;52.416;13.548;2023-03-01T07:27:30;14.93;;;7.63;;
68593;SDS011;55563;52.416;13.548;2023-03-01T07:29:31;15.88;;;7.45;;
68593;SDS011;55563;52.416;13.548;2023-03-01T07:31:32;15.07;;;7.57;;
68593;SDS011;55563;52.416;13.548;2023-03-01T07:33:33;13.45;;;7.82;;
68593;SDS011;55563;52.416;13.548;2023-03-01T07:35:34;14.32;;;7.63;;
68593;SDS011;55563;52.416;13.548;2023-03-01T07:37:34;14.13;;;8.18;;
68593;SDS011;55563;52.416;13.548;2023-03-01T07:39:35;14.82;;;8.85;;
68593;SDS011;55563;52.416;13.548;2023-03-01T07:41:36;15.90;;;8.13;;
68593;SDS011;55563;52.416;13.548;2023-03-01T07:43:36;16.13;;;8.13;;
68593;SDS011;55563;52.416;13.548;2023-03-01T07:45:37;16.52;;;9.55;;
68593;SDS011;55563;52.416;13.548;2023-03-01T07:47:38;15.70;;;8.13;;
68593;SDS011;55563;52.416;13.548;2023-03-01T07:49:38;14.73;;;8.88;;
68593;SDS011;55563;52.416;13.548;2023-03-01T07:51:39;16.70;;;8.40;;
68593;SDS011;55563;52.416;13.548;2023-03-01T07:53:40;16.08;;;9.00;;
68593;SDS011;55563;52.416;13.548;2023-03-01T07:55:40;14.75;;;7.88;;
68593;SDS011;55563;52.416;13.548;2023-03-01T07:58:00;16.13;;;8.95;;
68593;SDS011;55563;52.416;13.548;2023-03-01T08:00:03;13.63;;;7.25;;
68593;SDS011;55563;52.416;13.548;2023-03-01T08:02:15;14.05;;;7.35;;
68593;SDS011;55563;52.416;13.548;2023-03-01T08:04:15;15.77;;;8.73;;
68593;SDS011;55563;52.416;13.548;2023-03-01T08:06:16;13.82;;;8.00;;
68593;SDS011;55563;52.416;13.548;2023-03-01T08:08:19;14.18;;;6.70;;
68593;SDS011;55563;52.416;13.548;2023-03-01T08:10:19;13.73;;;7.75;;
68593;SDS011;55563;52.416;13.548;2023-03-01T08:12:20;11.57;;;7.10;;
68593;SDS011;55563;52.416;13.548;2023-03-01T08:14:21;14.55;;;7.32;;
68593;SDS011;55563;52.416;13.548;2023-03-01T08:16:22;11.88;;;6.82;;
68593;SDS011;55563;52.416;13.548;2023-03-01T08:18:24;10.68;;;5.85;;
68593;SDS011;55563;52.416;13.548;2023-03-01T08:20:25;9.02;;;5.20;;
68593;SDS011;55563;52.416;13.548;2023-03-01T08:22:26;10.13;;;5.43;;
68593;SDS011;55563;52.416;13.548;2023-03-01T08:24:27;10.18;;;5.53;;
68593;SDS011;55563;52.416;13.548;2023-03-01T08:26:28;11.07;;;6.40;;
68593;SDS011;55563;52.416;13.548;2023-03-01T08:28:29;10.38;;;6.00;;
68593;SDS011;55563;52.416;13.548;2023-03-01T08:30:29;11.00;;;6.90;;
68593;SDS011;55563;52.416;13.548;2023-03-01T08:32:34;11.40;;;7.50;;
68593;SDS011;55563;52.416;13.548;2023-03-01T08:34:36;12.05;;;7.78;;
68593;SDS011;55563;52.416;13.548;2023-03-01T08:36:38;11.27;;;6.78;;
68593;SDS011;55563;52.416;13.548;2023-03-01T08:38:41;10.30;;;6.72;;
68593;SDS011;55563;52.416;13.548;2023-03-01T08:40:41;11.27;;;5.93;;
68593;SDS011;55563;52.416;13.548;2023-03-01T08:42:42;11.38;;;7.15;;
68593;SDS011;55563;52.416;13.548;2023-03-01T08:44:43;11.10;;;6.32;;
68593;SDS011;55563;52.416;13.548;2023-03-01T08:46:43;13.07;;;7.47;;
68593;SDS011;55563;52.416;13.548;2023-03-01T08:48:45;12.68;;;7.20;;
68593;SDS011;55563;52.416;13.548;2023-03-01T08:50:46;11.00;;;6.30;;
68593;SDS011;55563;52.416;13.548;2023-03-01T08:52:47;12.43;;;7.80;;
68593;SDS011;55563;52.416;13.548;2023-03-01T08:54:48;14.55;;;7.70;;
68593;SDS011;55563;52.416;13.548;2023-03-01T08:56:49;11.32;;;6.13;;
68593;SDS011;55563;52.416;13.548;2023-03-01T08:58:50;7.50;;;5.25;;
68593;SDS011;55563;52.416;13.548;2023-03-01T09:00:50;13.55;;;6.50;;
68593;SDS011;55563;52.416;13.548;2023-03-01T09:02:51;14.00;;;7.28;;
68593;SDS011;55563;52.416;13.548;2023-03-01T09:04:52;14.77;;;7.93;;
68593;SDS011;55563;52.416;13.548;2023-03-01T09:06:53;10.68;;;5.82;;
68593;SDS011;55563;52.416;13.548;2023-03-01T09:08:53;10.48;;;6.10;;
68593;SDS011;55563;52.416;13.548;2023-03-01T09:10:55;10.60;;;6.70;;
68593;SDS011;55563;52.416;13.548;2023-03-01T09:12:55;11.93;;;6.85;;
68593;SDS011;55563;52.416;13.548;2023-03-01T09:14:56;9.88;;;5.78;;
68593;SDS011;55563;52.416;13.548;2023-03-01T09:16:57;10.90;;;5.50;;
68593;SDS011;55563;52.416;13.548;2023-03-01T09:18:58;9.45;;;5.15;;
68593;SDS011;55563;52.416;13.548;2023-03-01T09:21:01;7.82;;;4.93;;
68593;SDS011;55563;52.416;13.548;2023-03-01T09:23:08;7.63;;;4.85;;
68593;SDS011;55563;52.416;13.548;2023-03-01T09:25:09;7.30;;;4.72;;
68593;SDS011;55563;52.416;13.548;2023-03-01T09:27:09;8.63;;;4.90;;
68593;SDS011;55563;52.416;13.548;2023-03-01T09:29:10;7.53;;;3.63;;
68593;SDS011;55563;52.416;13.548;2023-03-01T09:31:11;7.00;;;3.63;;
68593;SDS011;55563;52.416;13.548;2023-03-01T09:33:14;7.00;;;3.83;;
68593;SDS011;55563;52.416;13.548;2023-03-01T09:35:14;6.40;;;3.70;;
68593;SDS011;55563;52.416;13.548;2023-03-01T09:37:15;8.10;;;4.63;;
68593;SDS011;55563;52.416;13.548;2023-03-01T09:39:16;6.13;;;3.55;;
68593;SDS011;55563;52.416;13.548;2023-03-01T09:43:48;7.28;;;4.57;;
68593;SDS011;55563;52.416;13.548;2023-03-01T09:45:54;7.05;;;3.95;;
68593;SDS011;55563;52.416;13.548;2023-03-01T09:48:00;8.60;;;4.68;;
68593;SDS011;55563;52.416;13.548;2023-03-01T09:50:34;7.45;;;4.38;;
68593;SDS011;55563;52.416;13.548;2023-03-01T09:52:25;6.30;;;4.43;;
68593;SDS011;55563;52.416;13.548;2023-03-01T09:54:34;3.00;;;2.35;;
68593;SDS011;55563;52.416;13.548;2023-03-01T09:56:40;6.88;;;4.28;;
68593;SDS011;55563;52.416;13.548;2023-03-01T10:01:29;6.78;;;3.70;;
68593;SDS011;55563;52.416;13.548;2023-03-01T10:03:36;6.18;;;3.80;;
68593;SDS011;55563;52.416;13.548;2023-03-01T10:08:15;7.25;;;3.67;;
68593;SDS011;55563;52.416;13.548;2023-03-01T10:10:39;5.55;;;3.65;;
68593;SDS011;55563;52.416;13.548;2023-03-01T10:12:44;6.13;;;4.20;;
68593;SDS011;55563;52.416;13.548;2023-03-01T10:15:18;6.43;;;3.80;;
68593;SDS011;55563;52.416;13.548;2023-03-01T10:17:44;6.05;;;3.90;;
68593;SDS011;55563;52.416;13.548;2023-03-01T10:19:56;2.53;;;1.73;;
68593;SDS011;55563;52.416;13.548;2023-03-01T10:22:16;2.42;;;1.90;;
68593;SDS011;55563;52.416;13.548;2023-03-01T10:24:21;4.70;;;2.63;;
68593;SDS011;55563;52.416;13.548;2023-03-01T10:26:35;6.75;;;3.17;;
68593;SDS011;55563;52.416;13.548;2023-03-01T10:29:14;7.45;;;3.90;;
68593;SDS011;55563;52.416;13.548;2023-03-01T10:31:20;7.32;;;4.55;;
68593;SDS011;55563;52.416;13.548;2023-03-01T10:33:30;5.65;;;3.33;;
68593;SDS011;55563;52.416;13.548;2023-03-01T10:35:33;6.70;;;4.18;;
68593;SDS011;55563;52.416;13.548;2023-03-01T10:37:34;6.65;;;4.57;;
68593;SDS011;55563;52.416;13.548;2023-03-01T10:40:17;5.72;;;3.15;;
68593;SDS011;55563;52.416;13.548;2023-03-01T10:42:19;6.75;;;4.38;;
68593;SDS011;55563;52.416;13.548;2023-03-01T10:44:34;6.28;;;3.50;;
68593;SDS011;55563;52.416;13.548;2023-03-01T10:46:42;3.95;;;2.50;;
68593;SDS011;55563;52.416;13.548;2023-03-01T10:48:43;1.63;;;1.45;;
68593;SDS011;55563;52.416;13.548;2023-03-01T10:50:44;4.90;;;3.10;;
68593;SDS011;55563;52.416;13.548;2023-03-01T10:53:04;6.20;;;3.92;;
68593;SDS011;55563;52.416;13.548;2023-03-01T10:55:24;5.70;;;3.30;;
68593;SDS011;55563;52.416;13.548;2023-03-01T10:57:40;3.42;;;2.58;;
68593;SDS011;55563;52.416;13.548;2023-03-01T10:59:41;5.32;;;2.83;;
68593;SDS011;55563;52.416;13.548;2023-03-01T11:01:42;5.97;;;3.13;;
68593;SDS011;55563;52.416;13.548;2023-03-01T11:03:43;5.60;;;3.25;;
68593;SDS011;55563;52.416;13.548;2023-03-01T11:05:50;5.22;;;3.50;;
68593;SDS011;55563;52.416;13.548;2023-03-01T11:08:10;4.80;;;3.03;;
68593;SDS011;55563;52.416;13.548;2023-03-01T11:10:12;5.25;;;2.70;;
68593;SDS011;55563;52.416;13.548;2023-03-01T11:12:18;3.83;;;2.53;;
68593;SDS011;55563;52.416;13.548;2023-03-01T11:14:21;4.25;;;2.58;;
68593;SDS011;55563;52.416;13.548;2023-03-01T11:16:26;5.22;;;3.30;;
68593;SDS011;55563;52.416;13.548;2023-03-01T11:18:31;4.53;;;2.83;;
68593;SDS011;55563;52.416;13.548;2023-03-01T11:20:33;2.47;;;2.08;;
68593;SDS011;55563;52.416;13.548;2023-03-01T11:22:36;3.22;;;2.20;;
68593;SDS011;55563;52.416;13.548;2023-03-01T11:24:49;4.80;;;3.20;;
68593;SDS011;55563;52.416;13.548;2023-03-01T11:26:53;6.15;;;3.40;;
68593;SDS011;55563;52.416;13.548;2023-03-01T11:28:55;5.40;;;3.20;;
68593;SDS011;55563;52.416;13.548;2023-03-01T11:31:05;5.70;;;3.83;;
68593;SDS011;55563;52.416;13.548;2023-03-01T11:35:49;5.93;;;3.85;;
68593;SDS011;55563;52.416;13.548;2023-03-01T11:37:59;4.82;;;3.58;;
68593;SDS011;55563;52.416;13.548;2023-03-01T11:40:24;5.55;;;3.55;;
68593;SDS011;55563;52.416;13.548;2023-03-01T11:44:58;5.50;;;3.30;;
68593;SDS011;55563;52.416;13.548;2023-03-01T11:54:53;4.60;;;3.05;;
68593;SDS011;55563;52.416;13.548;2023-03-01T12:05:12;6.20;;;2.70;;
68593;SDS011;55563;52.416;13.548;2023-03-01T12:10:38;4.97;;;3.03;;
68593;SDS011;55563;52.416;13.548;2023-03-01T12:12:30;2.15;;;1.63;;
68593;SDS011;55563;52.416;13.548;2023-03-01T12:20:21;3.75;;;2.50;;
68593;SDS011;55563;52.416;13.548;2023-03-01T12:22:48;5.18;;;3.35;;
68593;SDS011;55563;52.416;13.548;2023-03-01T12:25:14;2.92;;;1.80;;
68593;SDS011;55563;52.416;13.548;2023-03-01T12:27:33;3.15;;;1.90;;
68593;SDS011;55563;52.416;13.548;2023-03-01T12:37:16;3.10;;;1.55;;
68593;SDS011;55563;52.416;13.548;2023-03-01T12:41:54;3.03;;;1.60;;
68593;SDS011;55563;52.416;13.548;2023-03-01T12:44:47;3.10;;;1.27;;
68593;SDS011;55563;52.416;13.548;2023-03-01T12:46:52;3.22;;;1.70;;
68593;SDS011;55563;52.416;13.548;2023-03-01T12:49:10;4.22;;;1.85;;
68593;SDS011;55563;52.416;13.548;2023-03-01T12:51:19;3.17;;;1.83;;
68593;SDS011;55563;52.416;13.548;2023-03-01T12:53:26;2.70;;;1.45;;
68593;SDS011;55563;52.416;13.548;2023-03-01T12:55:33;2.75;;;1.60;;
68593;SDS011;55563;52.416;13.548;2023-03-01T12:57:38;2.05;;;1.60;;
68593;SDS011;55563;52.416;13.548;2023-03-01T13:00:23;3.63;;;1.50;;
68593;SDS011;55563;52.416;13.548;2023-03-01T13:02:25;3.42;;;1.75;;
68593;SDS011;55563;52.416;13.548;2023-03-01T13:09:18;4.45;;;1.65;;
68593;SDS011;55563;52.416;13.548;2023-03-01T13:11:25;1.52;;;1.00;;
68593;SDS011;55563;52.416;13.548;2023-03-01T13:13:26;2.25;;;1.30;;
68593;SDS011;55563;52.416;13.548;2023-03-01T13:15:30;2.92;;;1.42;;
68593;SDS011;55563;52.416;13.548;2023-03-01T13:17:40;2.03;;;1.17;;
68593;SDS011;55563;52.416;13.548;2023-03-01T13:20:01;2.53;;;1.35;;
68593;SDS011;55563;52.416;13.548;2023-03-01T13:22:24;3.78;;;1.42;;
68593;SDS011;55563;52.416;13.548;2023-03-01T13:24:32;2.58;;;1.65;;